Time;durP1;ratioP1;P1;durP2;ratioP2;P2;SDS_P1;SDS_P2;PMS_P1;PMS_P2;Temp;Humidity;BMP_temperature;BMP_pressure;BME280_temperature;BME280_humidity;BME280_pressure;Samples;Min_cycle;Max_cycle;Signal;HPM_P1;HPM_P2
2022/01/11 00:01:00;;;;;;;64.00;41.17;;;;;;;;;;5116926;27;24937;-58
2022/01/11 00:03:25;;;;;;;57.08;39.00;;;;;;;;;;5122643;27;24409;-58
2022/01/11 00:05:57;;;;;;;59.27;40.23;;;;;;;;;;5117170;27;24473;-58
2022/01/11 00:08:30;;;;;;;59.65;39.63;;;;;;;;;;5122763;27;24498;-59
2022/01/11 00:11:03;;;;;;;53.95;37.70;;;;;;;;;;5116917;27;24413;-59
2022/01/11 00:13:28;;;;;;;54.83;35.95;;;;;;;;;;5118898;27;24417;-59
2022/01/11 00:15:54;;;;;;;52.85;34.88;;;;;;;;;;5121351;27;24408;-60
2022/01/11 00:18:19;;;;;;;57.88;37.97;;;;;;;;;;5124639;27;24455;-60
2022/01/11 00:20:44;;;;;;;58.50;37.70;;;;;;;;;;5121549;27;25056;-59
2022/01/11 00:25:38;;;;;;;57.27;36.47;;;;;;;;;;5121003;27;24507;-59
2022/01/11 00:28:04;;;;;;;53.13;38.10;;;;;;;;;;5120567;27;25009;-58
2022/01/11 00:30:33;;;;;;;59.80;37.78;;;;;;;;;;5109244;27;24862;-58
2022/01/11 00:33:01;;;;;;;53.88;37.83;;;;;;;;;;5118054;27;24428;-58
2022/01/11 00:35:39;;;;;;;58.33;37.70;;;;;;;;;;5120363;27;24462;-59
2022/01/11 00:38:04;;;;;;;59.38;40.92;;;;;;;;;;5118049;27;24933;-59
2022/01/11 00:40:29;;;;;;;55.55;38.10;;;;;;;;;;5122993;27;25123;-59
2022/01/11 00:42:59;;;;;;;59.13;36.77;;;;;;;;;;5122509;27;25051;-59
2022/01/11 00:45:25;;;;;;;53.95;37.75;;;;;;;;;;5116424;27;24446;-59
2022/01/11 00:47:50;;;;;;;49.33;33.30;;;;;;;;;;5120215;27;24846;-58
2022/01/11 00:50:15;;;;;;;59.40;39.03;;;;;;;;;;5117703;27;24508;-59
2022/01/11 00:52:40;;;;;;;56.95;38.10;;;;;;;;;;5122958;27;24471;-59
2022/01/11 00:55:06;;;;;;;57.53;36.90;;;;;;;;;;5114804;27;24417;-59
2022/01/11 00:57:31;;;;;;;52.30;35.70;;;;;;;;;;5109568;27;24494;-60
2022/01/11 00:59:56;;;;;;;50.13;34.50;;;;;;;;;;5115602;27;24409;-60
2022/01/11 01:02:21;;;;;;;51.45;35.10;;;;;;;;;;5122800;27;24465;-60
2022/01/11 01:04:47;;;;;;;51.10;36.73;;;;;;;;;;5118437;27;24421;-59
2022/01/11 01:07:12;;;;;;;53.77;34.90;;;;;;;;;;5117898;27;24902;-60
2022/01/11 01:09:52;;;;;;;54.30;36.30;;;;;;;;;;5119874;27;24512;-58
2022/01/11 01:12:17;;;;;;;53.77;37.00;;;;;;;;;;5122055;27;24405;-60
2022/01/11 01:14:42;;;;;;;53.38;34.50;;;;;;;;;;5123229;27;25002;-60
2022/01/11 01:17:07;;;;;;;53.83;35.40;;;;;;;;;;5105748;27;24519;-59
2022/01/11 01:19:32;;;;;;;50.40;33.60;;;;;;;;;;5119258;27;24494;-59
2022/01/11 01:21:58;;;;;;;51.23;33.57;;;;;;;;;;5119226;27;24842;-59
2022/01/11 01:24:23;;;;;;;49.80;36.10;;;;;;;;;;5122361;27;25001;-59
2022/01/11 01:26:48;;;;;;;48.50;33.58;;;;;;;;;;5123831;27;24939;-59
2022/01/11 01:29:14;;;;;;;43.87;32.07;;;;;;;;;;5117505;27;24424;-59
2022/01/11 01:31:39;;;;;;;43.47;32.78;;;;;;;;;;5117500;27;24428;-60
2022/01/11 01:34:05;;;;;;;46.38;33.58;;;;;;;;;;5122243;27;24550;-60
2022/01/11 01:36:30;;;;;;;47.00;34.63;;;;;;;;;;5120240;27;24496;-59
2022/01/11 01:38:55;;;;;;;52.47;36.97;;;;;;;;;;5118278;27;24866;-59
2022/01/11 01:41:21;;;;;;;50.17;36.70;;;;;;;;;;5117786;27;24405;-60
2022/01/11 01:43:49;;;;;;;45.28;33.38;;;;;;;;;;5119221;27;25009;-59
2022/01/11 01:46:15;;;;;;;46.55;33.28;;;;;;;;;;5123148;27;24421;-59
2022/01/11 01:48:40;;;;;;;48.45;35.08;;;;;;;;;;5119837;27;24416;-58
2022/01/11 01:51:07;;;;;;;48.58;36.08;;;;;;;;;;5117983;27;24417;-58
2022/01/11 01:53:33;;;;;;;50.10;34.63;;;;;;;;;;5115471;28;24437;-58
2022/01/11 01:55:58;;;;;;;45.05;32.78;;;;;;;;;;5113890;27;24566;-58
2022/01/11 01:58:25;;;;;;;53.37;36.70;;;;;;;;;;5107463;28;24505;-57
2022/01/11 02:00:55;;;;;;;50.63;35.72;;;;;;;;;;5114720;28;24405;-59
2022/01/11 02:03:29;;;;;;;51.53;35.47;;;;;;;;;;5115225;28;24420;-59
2022/01/11 02:05:56;;;;;;;51.38;35.95;;;;;;;;;;5119478;28;24427;-59
2022/01/11 02:08:21;;;;;;;49.43;35.27;;;;;;;;;;5122937;28;24421;-59
2022/01/11 02:10:46;;;;;;;53.03;38.40;;;;;;;;;;5120509;28;24424;-59
2022/01/11 02:13:11;;;;;;;59.47;40.50;;;;;;;;;;5115764;28;24421;-59
2022/01/11 02:15:36;;;;;;;57.53;40.67;;;;;;;;;;5122784;28;24419;-59
2022/01/11 02:18:12;;;;;;;51.27;36.10;;;;;;;;;;5120313;28;24873;-58
2022/01/11 02:20:43;;;;;;;53.78;37.55;;;;;;;;;;5117454;28;24417;-59
2022/01/11 02:23:08;;;;;;;56.53;39.88;;;;;;;;;;5114963;28;24432;-58
2022/01/11 02:25:34;;;;;;;53.05;37.58;;;;;;;;;;5120661;28;24397;-60
2022/01/11 02:27:59;;;;;;;54.23;38.00;;;;;;;;;;5122001;28;24432;-57
2022/01/11 02:30:24;;;;;;;50.15;36.25;;;;;;;;;;5120426;28;24413;-59
2022/01/11 02:32:50;;;;;;;48.50;34.70;;;;;;;;;;5116920;28;24417;-59
2022/01/11 02:35:15;;;;;;;57.20;41.23;;;;;;;;;;5117350;28;24452;-59
2022/01/11 02:37:41;;;;;;;55.27;39.00;;;;;;;;;;5118428;28;24775;-58
2022/01/11 02:40:07;;;;;;;59.40;42.55;;;;;;;;;;5122944;28;25022;-59
2022/01/11 02:42:32;;;;;;;57.00;40.55;;;;;;;;;;5122482;28;24461;-59
2022/01/11 02:44:58;;;;;;;60.80;45.03;;;;;;;;;;5118949;28;24413;-58
2022/01/11 02:47:23;;;;;;;58.80;41.20;;;;;;;;;;5116026;28;24409;-58
2022/01/11 02:49:48;;;;;;;66.43;45.75;;;;;;;;;;5117497;28;24763;-58
2022/01/11 02:52:13;;;;;;;56.02;40.56;;;;;;;;;;5116064;28;24521;-57
2022/01/11 02:54:38;;;;;;;63.75;44.78;;;;;;;;;;5121689;28;24432;-58
2022/01/11 02:57:03;;;;;;;57.75;40.78;;;;;;;;;;5117945;28;24977;-59
2022/01/11 02:59:29;;;;;;;62.50;41.63;;;;;;;;;;5120037;28;24432;-58
2022/01/11 03:01:54;;;;;;;65.83;45.57;;;;;;;;;;5114930;28;24435;-59
2022/01/11 03:04:19;;;;;;;66.78;46.78;;;;;;;;;;5116162;28;24431;-58
2022/01/11 03:06:45;;;;;;;65.97;45.30;;;;;;;;;;5110538;28;24876;-59
2022/01/11 03:09:10;;;;;;;60.58;43.80;;;;;;;;;;5124579;27;24416;-58
2022/01/11 03:11:35;;;;;;;65.90;45.50;;;;;;;;;;5121664;27;24447;-58
2022/01/11 03:14:02;;;;;;;67.23;45.90;;;;;;;;;;5123304;27;24845;-59
2022/01/11 03:16:27;;;;;;;66.32;45.97;;;;;;;;;;5120374;27;25385;-58
2022/01/11 03:18:52;;;;;;;68.47;46.88;;;;;;;;;;5121350;27;24416;-58
2022/01/11 03:21:17;;;;;;;66.20;46.83;;;;;;;;;;5120815;27;24764;-59
2022/01/11 03:23:43;;;;;;;60.30;42.10;;;;;;;;;;5125228;27;24416;-59
2022/01/11 03:26:08;;;;;;;54.77;39.90;;;;;;;;;;5123286;27;24415;-59
2022/01/11 03:28:33;;;;;;;62.67;45.30;;;;;;;;;;5122381;27;24420;-59
2022/01/11 03:31:00;;;;;;;68.93;48.53;;;;;;;;;;5120583;27;24420;-59
2022/01/11 03:33:25;;;;;;;72.75;50.58;;;;;;;;;;5121374;27;24432;-59
2022/01/11 03:35:51;;;;;;;65.20;45.87;;;;;;;;;;5121627;27;24763;-60
2022/01/11 03:38:17;;;;;;;69.93;49.05;;;;;;;;;;5122515;27;24417;-60
2022/01/11 03:40:42;;;;;;;69.43;46.08;;;;;;;;;;5125650;27;24436;-58
2022/01/11 03:43:07;;;;;;;68.83;47.93;;;;;;;;;;5113317;27;24416;-58
2022/01/11 03:45:33;;;;;;;69.50;47.43;;;;;;;;;;5120025;27;24989;-58
2022/01/11 03:47:59;;;;;;;70.73;48.27;;;;;;;;;;5120952;27;24822;-58
2022/01/11 03:50:25;;;;;;;69.77;48.10;;;;;;;;;;5123593;27;24428;-59
2022/01/11 03:52:59;;;;;;;73.97;45.15;;;;;;;;;;5125236;27;24525;-58
2022/01/11 03:55:44;;;;;;;75.20;45.28;;;;;;;;;;5122727;27;24492;-58
2022/01/11 03:58:10;;;;;;;73.28;46.00;;;;;;;;;;5108613;27;24960;-59
2022/01/11 04:00:35;;;;;;;71.23;45.33;;;;;;;;;;5121076;27;24954;-59
2022/01/11 04:03:00;;;;;;;75.95;47.55;;;;;;;;;;5123293;27;24517;-59
2022/01/11 04:05:26;;;;;;;71.47;46.73;;;;;;;;;;5122983;27;24425;-59
2022/01/11 04:07:51;;;;;;;69.13;43.97;;;;;;;;;;5122961;27;24470;-59
2022/01/11 04:10:16;;;;;;;71.00;44.77;;;;;;;;;;5111727;27;24493;-58
2022/01/11 04:12:41;;;;;;;78.63;49.20;;;;;;;;;;5124313;27;24521;-57
2022/01/11 04:15:07;;;;;;;79.07;49.37;;;;;;;;;;5122497;27;24470;-58
2022/01/11 04:17:32;;;;;;;83.70;50.73;;;;;;;;;;5124481;27;24596;-58
2022/01/11 04:19:57;;;;;;;74.85;47.55;;;;;;;;;;5117519;27;24393;-58
2022/01/11 04:22:22;;;;;;;71.27;46.93;;;;;;;;;;5120567;27;24524;-59
2022/01/11 04:24:47;;;;;;;75.93;47.73;;;;;;;;;;5123000;27;24413;-57
2022/01/11 04:27:13;;;;;;;76.43;47.15;;;;;;;;;;5123146;27;24392;-58
2022/01/11 04:29:38;;;;;;;78.83;49.27;;;;;;;;;;5118806;27;24476;-59
2022/01/11 04:32:03;;;;;;;71.32;45.20;;;;;;;;;;5121145;27;24397;-58
2022/01/11 04:34:29;;;;;;;73.57;45.35;;;;;;;;;;5123510;27;24834;-59
2022/01/11 04:36:54;;;;;;;69.97;45.30;;;;;;;;;;5123560;27;24452;-59
2022/01/11 04:39:19;;;;;;;73.83;45.57;;;;;;;;;;5115992;27;24416;-59
2022/01/11 04:41:44;;;;;;;69.97;44.50;;;;;;;;;;5121387;27;24848;-59
2022/01/11 04:44:09;;;;;;;64.40;41.30;;;;;;;;;;5114510;27;24429;-59
2022/01/11 04:46:35;;;;;;;67.25;42.42;;;;;;;;;;5109927;27;24414;-59
2022/01/11 04:49:00;;;;;;;66.17;40.07;;;;;;;;;;5104164;27;24436;-59
2022/01/11 04:51:26;;;;;;;73.17;42.80;;;;;;;;;;5108507;27;24414;-59
2022/01/11 04:53:51;;;;;;;65.60;40.28;;;;;;;;;;5113776;27;24425;-60
2022/01/11 04:56:17;;;;;;;70.75;41.45;;;;;;;;;;5115512;27;24459;-60
2022/01/11 04:58:42;;;;;;;70.50;41.58;;;;;;;;;;5114866;27;24402;-59
2022/01/11 05:01:07;;;;;;;74.90;41.43;;;;;;;;;;5111932;27;24422;-59
2022/01/11 05:03:33;;;;;;;77.38;43.75;;;;;;;;;;5113519;27;24946;-59
2022/01/11 05:05:58;;;;;;;70.20;40.60;;;;;;;;;;5102081;28;24943;-59
2022/01/11 05:08:23;;;;;;;76.40;41.83;;;;;;;;;;5110591;27;24405;-59
2022/01/11 05:10:49;;;;;;;63.90;37.40;;;;;;;;;;5120940;27;24413;-59
2022/01/11 05:13:15;;;;;;;72.25;41.65;;;;;;;;;;5120759;27;24454;-59
2022/01/11 05:15:40;;;;;;;63.78;37.95;;;;;;;;;;5118652;27;24520;-59
2022/01/11 05:18:06;;;;;;;62.30;37.60;;;;;;;;;;5112993;27;24579;-59
2022/01/11 05:20:31;;;;;;;65.65;37.35;;;;;;;;;;5111551;27;24492;-59
2022/01/11 05:22:56;;;;;;;58.90;35.70;;;;;;;;;;5120426;27;24413;-59
2022/01/11 05:25:21;;;;;;;61.00;39.10;;;;;;;;;;5119891;27;24972;-58
2022/01/11 05:27:47;;;;;;;61.50;39.77;;;;;;;;;;5116085;27;24962;-59
2022/01/11 05:30:13;;;;;;;60.23;37.03;;;;;;;;;;5118592;27;25030;-58
2022/01/11 05:32:39;;;;;;;66.28;41.40;;;;;;;;;;5119553;27;24421;-58
2022/01/11 05:35:13;;;;;;;61.60;38.83;;;;;;;;;;5114374;27;24779;-58
2022/01/11 05:37:39;;;;;;;58.08;36.80;;;;;;;;;;5092912;27;24990;-58
2022/01/11 05:40:05;;;;;;;60.00;38.30;;;;;;;;;;5115970;27;24424;-58
2022/01/11 05:42:30;;;;;;;65.55;39.88;;;;;;;;;;5119320;27;24445;-57
2022/01/11 05:44:56;;;;;;;62.60;39.00;;;;;;;;;;5103776;27;26308;-58
2022/01/11 05:47:21;;;;;;;59.13;38.07;;;;;;;;;;5115211;27;24516;-58
2022/01/11 05:49:46;;;;;;;66.40;42.93;;;;;;;;;;5117978;27;24410;-58
2022/01/11 05:52:12;;;;;;;67.17;38.63;;;;;;;;;;5119129;27;24498;-58
2022/01/11 05:54:37;;;;;;;68.72;41.65;;;;;;;;;;5115885;28;25014;-58
2022/01/11 05:57:02;;;;;;;61.50;41.00;;;;;;;;;;5095085;28;24994;-59
2022/01/11 05:59:27;;;;;;;62.83;40.10;;;;;;;;;;5101005;28;24409;-60
2022/01/11 06:01:52;;;;;;;64.10;37.77;;;;;;;;;;5113786;28;24412;-60
2022/01/11 06:04:18;;;;;;;67.90;39.00;;;;;;;;;;5110081;28;24423;-59
2022/01/11 06:06:43;;;;;;;65.17;37.73;;;;;;;;;;5113655;28;24559;-59
2022/01/11 06:09:08;;;;;;;61.40;38.20;;;;;;;;;;5114522;28;24632;-59
2022/01/11 06:11:33;;;;;;;67.13;39.53;;;;;;;;;;5117558;28;24515;-59
2022/01/11 06:13:58;;;;;;;55.83;34.57;;;;;;;;;;5120388;28;24520;-59
2022/01/11 06:16:24;;;;;;;54.42;34.80;;;;;;;;;;5117760;28;24416;-58
2022/01/11 06:18:49;;;;;;;58.28;36.83;;;;;;;;;;5115064;28;24807;-59
2022/01/11 06:21:15;;;;;;;59.22;38.17;;;;;;;;;;5111926;28;24435;-59
2022/01/11 06:23:40;;;;;;;55.20;37.17;;;;;;;;;;5113418;28;25018;-58
2022/01/11 06:26:05;;;;;;;61.20;36.73;;;;;;;;;;5119411;28;25019;-59
2022/01/11 06:28:30;;;;;;;59.50;37.70;;;;;;;;;;5122498;28;25077;-58
2022/01/11 06:30:55;;;;;;;59.83;37.33;;;;;;;;;;5120872;28;24397;-58
2022/01/11 06:33:21;;;;;;;58.00;37.20;;;;;;;;;;5117457;28;24429;-58
2022/01/11 06:35:46;;;;;;;53.63;36.33;;;;;;;;;;5118047;28;24405;-58
2022/01/11 06:38:11;;;;;;;61.13;38.10;;;;;;;;;;5120745;28;24461;-60
2022/01/11 06:40:36;;;;;;;56.85;36.67;;;;;;;;;;5122877;28;24399;-59
2022/01/11 06:43:01;;;;;;;54.03;35.37;;;;;;;;;;5123310;27;24453;-58
2022/01/11 06:45:27;;;;;;;55.80;35.10;;;;;;;;;;5122962;27;24404;-58
2022/01/11 06:47:53;;;;;;;50.15;34.38;;;;;;;;;;5122684;27;24409;-58
2022/01/11 06:50:18;;;;;;;50.33;33.77;;;;;;;;;;5122424;27;25091;-58
2022/01/11 06:52:44;;;;;;;53.80;32.97;;;;;;;;;;5121957;27;24424;-66
2022/01/11 06:55:09;;;;;;;51.97;33.38;;;;;;;;;;5123805;27;24795;-66
2022/01/11 06:57:35;;;;;;;55.33;36.70;;;;;;;;;;5124618;27;24412;-65
2022/01/11 07:00:00;;;;;;;60.37;37.60;;;;;;;;;;5124927;27;24407;-66
2022/01/11 07:02:25;;;;;;;54.78;35.70;;;;;;;;;;5119433;27;24980;-60
2022/01/11 07:04:50;;;;;;;56.07;35.53;;;;;;;;;;5121249;27;24409;-60
2022/01/11 07:07:15;;;;;;;56.75;36.92;;;;;;;;;;5106015;27;25269;-58
2022/01/11 07:09:41;;;;;;;52.57;33.10;;;;;;;;;;5123834;27;24460;-59
2022/01/11 07:12:06;;;;;;;53.13;35.00;;;;;;;;;;5116332;27;24413;-59
2022/01/11 07:14:31;;;;;;;52.40;34.90;;;;;;;;;;5103305;27;25368;-60
2022/01/11 07:16:57;;;;;;;53.23;33.40;;;;;;;;;;5108719;27;24425;-59
2022/01/11 07:19:22;;;;;;;54.75;34.60;;;;;;;;;;5119448;27;24454;-59
2022/01/11 07:21:47;;;;;;;51.70;33.50;;;;;;;;;;5121594;27;24438;-59
2022/01/11 07:24:13;;;;;;;55.90;35.80;;;;;;;;;;5123410;27;24406;-59
2022/01/11 07:26:39;;;;;;;50.13;30.47;;;;;;;;;;5123972;27;24442;-58
2022/01/11 07:29:05;;;;;;;47.40;32.10;;;;;;;;;;5117937;27;24482;-59
2022/01/11 07:31:31;;;;;;;51.80;32.60;;;;;;;;;;5114724;27;24504;-58
2022/01/11 07:33:56;;;;;;;51.63;33.72;;;;;;;;;;5122080;27;24429;-58
2022/01/11 07:36:21;;;;;;;52.50;34.00;;;;;;;;;;5117874;27;25001;-58
2022/01/11 07:38:46;;;;;;;52.08;32.50;;;;;;;;;;5122349;27;25018;-59
2022/01/11 07:41:11;;;;;;;54.40;34.40;;;;;;;;;;5116683;27;25224;-58
2022/01/11 07:43:37;;;;;;;53.90;32.70;;;;;;;;;;5118019;27;24508;-58
2022/01/11 07:46:02;;;;;;;57.93;34.33;;;;;;;;;;5117896;27;25017;-58
2022/01/11 07:48:27;;;;;;;54.90;34.60;;;;;;;;;;5116019;27;24504;-59
2022/01/11 07:50:53;;;;;;;51.97;33.70;;;;;;;;;;5108207;27;24445;-59
2022/01/11 07:53:18;;;;;;;50.50;31.97;;;;;;;;;;5111564;27;24501;-58
2022/01/11 07:55:43;;;;;;;48.10;31.95;;;;;;;;;;5116022;27;24571;-59
2022/01/11 07:58:08;;;;;;;50.97;32.50;;;;;;;;;;5121604;27;24476;-59
2022/01/11 08:00:33;;;;;;;46.70;31.17;;;;;;;;;;5123489;27;24486;-58
2022/01/11 08:02:58;;;;;;;47.50;31.83;;;;;;;;;;5123108;27;24763;-59
2022/01/11 08:05:23;;;;;;;47.70;31.80;;;;;;;;;;5125032;27;24420;-58
2022/01/11 08:07:49;;;;;;;48.75;31.60;;;;;;;;;;5121825;27;24377;-58
2022/01/11 08:10:18;;;;;;;46.63;31.10;;;;;;;;;;5119974;27;24393;-59
2022/01/11 08:12:43;;;;;;;47.03;31.48;;;;;;;;;;5122938;27;24922;-58
2022/01/11 08:15:08;;;;;;;49.10;32.00;;;;;;;;;;5125289;27;24408;-58
2022/01/11 08:17:34;;;;;;;42.67;29.60;;;;;;;;;;5125167;27;24492;-59
2022/01/11 08:19:59;;;;;;;41.17;28.60;;;;;;;;;;5121650;27;24878;-59
2022/01/11 08:22:25;;;;;;;41.60;28.47;;;;;;;;;;5109579;27;24398;-58
2022/01/11 08:24:51;;;;;;;49.05;31.15;;;;;;;;;;5100554;28;24390;-59
2022/01/11 08:27:19;;;;;;;44.10;28.50;;;;;;;;;;5100269;28;24770;-59
2022/01/11 08:29:44;;;;;;;43.90;29.25;;;;;;;;;;5101832;28;24416;-59
2022/01/11 08:32:10;;;;;;;41.90;28.67;;;;;;;;;;5104067;28;25142;-59
2022/01/11 08:34:35;;;;;;;47.07;31.90;;;;;;;;;;5103475;28;24413;-59
2022/01/11 08:37:00;;;;;;;43.40;30.07;;;;;;;;;;5097992;28;24432;-58
2022/01/11 08:39:25;;;;;;;45.35;29.92;;;;;;;;;;5102249;28;24383;-58
2022/01/11 08:41:51;;;;;;;39.95;27.15;;;;;;;;;;5103770;28;24485;-58
2022/01/11 08:44:16;;;;;;;47.50;27.47;;;;;;;;;;5120008;27;24905;-58
2022/01/11 08:46:42;;;;;;;43.70;28.60;;;;;;;;;;5124303;27;24628;-58
2022/01/11 08:49:07;;;;;;;45.43;28.80;;;;;;;;;;5118994;27;24788;-58
2022/01/11 08:51:32;;;;;;;45.23;28.17;;;;;;;;;;5117294;27;24484;-59
2022/01/11 08:53:58;;;;;;;45.83;28.73;;;;;;;;;;5113393;27;24529;-57
2022/01/11 08:56:23;;;;;;;42.67;27.77;;;;;;;;;;5104411;28;24401;-58
2022/01/11 08:58:48;;;;;;;44.05;28.10;;;;;;;;;;5105456;27;24517;-59
2022/01/11 09:01:13;;;;;;;47.80;30.80;;;;;;;;;;5100219;28;24787;-58
2022/01/11 09:03:39;;;;;;;47.10;29.23;;;;;;;;;;5098103;28;24565;-58
2022/01/11 09:06:07;;;;;;;47.20;30.30;;;;;;;;;;5098417;28;24408;-58
2022/01/11 09:08:32;;;;;;;47.88;29.30;;;;;;;;;;5116405;27;25106;-58
2022/01/11 09:10:57;;;;;;;43.45;27.33;;;;;;;;;;5122160;27;24500;-58
2022/01/11 09:13:25;;;;;;;44.60;28.30;;;;;;;;;;5123703;27;24516;-58
2022/01/11 09:15:50;;;;;;;46.42;28.98;;;;;;;;;;5123033;27;24493;-58
2022/01/11 09:18:16;;;;;;;44.63;28.70;;;;;;;;;;5118664;27;24524;-58
2022/01/11 09:20:41;;;;;;;49.17;29.93;;;;;;;;;;5118093;27;24396;-58
2022/01/11 09:23:06;;;;;;;43.10;28.30;;;;;;;;;;5123667;27;24433;-57
2022/01/11 09:25:31;;;;;;;45.83;28.58;;;;;;;;;;5122987;27;24412;-58
2022/01/11 09:27:56;;;;;;;42.70;27.40;;;;;;;;;;5121841;27;24401;-58
2022/01/11 09:30:21;;;;;;;45.22;27.95;;;;;;;;;;5119628;27;24378;-59
2022/01/11 09:32:47;;;;;;;44.13;27.95;;;;;;;;;;5119817;27;24404;-57
2022/01/11 09:35:13;;;;;;;40.50;27.45;;;;;;;;;;5115946;27;24515;-58
2022/01/11 09:37:38;;;;;;;45.85;27.90;;;;;;;;;;5102603;28;24433;-59
2022/01/11 09:40:05;;;;;;;41.43;27.50;;;;;;;;;;5101433;28;24439;-59
2022/01/11 09:42:30;;;;;;;50.25;29.67;;;;;;;;;;5099206;28;24406;-59
2022/01/11 09:44:55;;;;;;;44.33;28.80;;;;;;;;;;5099473;28;24404;-59
2022/01/11 09:47:21;;;;;;;44.80;30.10;;;;;;;;;;5117520;27;24408;-59
2022/01/11 09:49:46;;;;;;;47.13;28.87;;;;;;;;;;5123471;27;24488;-59
2022/01/11 09:52:12;;;;;;;51.30;32.00;;;;;;;;;;5121660;27;24980;-58
2022/01/11 09:54:38;;;;;;;45.25;29.88;;;;;;;;;;5117963;27;25112;-59
2022/01/11 09:57:04;;;;;;;43.90;28.13;;;;;;;;;;5119424;27;24416;-62
2022/01/11 09:59:29;;;;;;;46.78;29.92;;;;;;;;;;5123600;28;24396;-60
2022/01/11 10:01:55;;;;;;;42.73;29.33;;;;;;;;;;5121637;28;24404;-58
2022/01/11 10:04:24;;;;;;;43.50;28.90;;;;;;;;;;5123478;28;24470;-57
2022/01/11 10:06:53;;;;;;;48.08;29.98;;;;;;;;;;5118925;28;24412;-58
2022/01/11 10:09:21;;;;;;;48.65;30.23;;;;;;;;;;5117854;28;24982;-58
2022/01/11 10:11:50;;;;;;;43.78;28.55;;;;;;;;;;5119862;28;24434;-58
2022/01/11 10:14:18;;;;;;;45.45;27.30;;;;;;;;;;5123324;28;24417;-57
2022/01/11 10:16:44;;;;;;;45.88;29.50;;;;;;;;;;5122952;27;24473;-58
2022/01/11 10:19:22;;;;;;;43.47;28.43;;;;;;;;;;5123435;27;24480;-58
2022/01/11 10:21:50;;;;;;;47.80;28.45;;;;;;;;;;5123589;27;24488;-59
2022/01/11 10:24:22;;;;;;;44.50;28.90;;;;;;;;;;5120791;27;24454;-59
2022/01/11 10:26:48;;;;;;;46.03;29.50;;;;;;;;;;5126878;27;24385;-58
2022/01/11 10:29:35;;;;;;;54.17;31.80;;;;;;;;;;5125810;27;24384;-59
2022/01/11 10:32:08;;;;;;;45.45;29.02;;;;;;;;;;5121629;27;24921;-58
2022/01/11 10:34:34;;;;;;;46.60;27.50;;;;;;;;;;5120687;27;24500;-58
2022/01/11 10:37:01;;;;;;;44.50;28.03;;;;;;;;;;5122735;27;24433;-58
2022/01/11 10:39:29;;;;;;;43.28;27.00;;;;;;;;;;5127109;27;24438;-57
2022/01/11 10:41:55;;;;;;;42.33;27.98;;;;;;;;;;5124993;27;24469;-58
2022/01/11 10:44:39;;;;;;;42.15;27.48;;;;;;;;;;5122961;27;24871;-58
2022/01/11 10:47:04;;;;;;;40.15;26.45;;;;;;;;;;5120677;27;24413;-58
2022/01/11 10:49:31;;;;;;;44.73;28.13;;;;;;;;;;5122919;27;24408;-58
2022/01/11 10:52:16;;;;;;;41.30;27.23;;;;;;;;;;5122542;27;24446;-58
2022/01/11 10:54:44;;;;;;;44.13;29.02;;;;;;;;;;5126555;27;25172;-58
2022/01/11 10:57:17;;;;;;;40.75;26.80;;;;;;;;;;5125139;27;24401;-59
2022/01/11 10:59:42;;;;;;;46.08;29.35;;;;;;;;;;5103990;27;24431;-58
2022/01/11 11:02:11;;;;;;;47.13;30.13;;;;;;;;;;5102250;27;24442;-59
2022/01/11 11:04:38;;;;;;;47.00;28.23;;;;;;;;;;5120600;27;24484;-58
2022/01/11 11:07:13;;;;;;;42.38;27.80;;;;;;;;;;5124141;27;24538;-58
2022/01/11 11:09:45;;;;;;;43.28;28.02;;;;;;;;;;5125981;27;24408;-58
2022/01/11 11:12:17;;;;;;;40.33;27.25;;;;;;;;;;5124456;27;24817;-58
2022/01/11 11:14:56;;;;;;;41.93;27.80;;;;;;;;;;5121641;27;24661;-58
2022/01/11 11:17:25;;;;;;;42.20;27.92;;;;;;;;;;5123554;27;24397;-59
2022/01/11 11:19:55;;;;;;;41.38;27.80;;;;;;;;;;5125937;27;24945;-59
2022/01/11 11:22:20;;;;;;;40.50;26.95;;;;;;;;;;5125564;27;24377;-59
2022/01/11 11:24:46;;;;;;;42.37;28.13;;;;;;;;;;5123851;27;24410;-59
2022/01/11 11:27:11;;;;;;;48.88;30.90;;;;;;;;;;5120097;27;24495;-58
2022/01/11 11:29:36;;;;;;;43.93;28.07;;;;;;;;;;5122911;27;24424;-59
2022/01/11 11:32:02;;;;;;;50.22;31.58;;;;;;;;;;5123960;27;24405;-59
2022/01/11 11:34:27;;;;;;;47.80;30.50;;;;;;;;;;5125824;27;24474;-59
2022/01/11 11:36:53;;;;;;;44.97;28.97;;;;;;;;;;5121289;27;25034;-59
2022/01/11 11:39:20;;;;;;;48.43;30.20;;;;;;;;;;5121671;27;25085;-59
2022/01/11 11:41:47;;;;;;;44.17;28.00;;;;;;;;;;5121714;27;24508;-59
2022/01/11 11:44:15;;;;;;;45.03;28.70;;;;;;;;;;5125950;27;24502;-59
2022/01/11 11:46:42;;;;;;;42.70;27.27;;;;;;;;;;5125652;27;24476;-59
2022/01/11 11:49:07;;;;;;;44.25;28.50;;;;;;;;;;5122978;27;24767;-59
2022/01/11 11:51:38;;;;;;;44.03;27.13;;;;;;;;;;5123692;27;24906;-59
2022/01/11 11:54:09;;;;;;;41.15;26.98;;;;;;;;;;5120218;27;24981;-59
2022/01/11 11:56:34;;;;;;;40.20;25.90;;;;;;;;;;5117161;27;24790;-59
2022/01/11 11:59:05;;;;;;;41.67;28.00;;;;;;;;;;5123461;27;24405;-60
2022/01/11 12:01:41;;;;;;;45.45;28.80;;;;;;;;;;5123022;27;24779;-58
2022/01/11 12:04:19;;;;;;;40.30;27.30;;;;;;;;;;5119793;27;24977;-58
2022/01/11 12:06:45;;;;;;;40.53;27.20;;;;;;;;;;5123096;27;24440;-59
2022/01/11 12:09:11;;;;;;;42.38;27.83;;;;;;;;;;5125041;27;24934;-58
2022/01/11 12:11:38;;;;;;;40.80;26.88;;;;;;;;;;5124994;27;24770;-58
2022/01/11 12:14:04;;;;;;;41.35;27.20;;;;;;;;;;5119613;27;24416;-59
2022/01/11 12:16:34;;;;;;;40.70;27.10;;;;;;;;;;5122867;27;24408;-61
2022/01/11 12:19:02;;;;;;;40.30;27.15;;;;;;;;;;5122659;27;24452;-59
2022/01/11 12:21:28;;;;;;;40.60;25.42;;;;;;;;;;5125121;27;24828;-59
2022/01/11 12:23:57;;;;;;;42.42;28.00;;;;;;;;;;5121217;27;25088;-60
2022/01/11 12:26:26;;;;;;;42.47;27.80;;;;;;;;;;5119356;27;24986;-59
2022/01/11 12:29:04;;;;;;;45.42;28.30;;;;;;;;;;5120634;27;24993;-59
2022/01/11 12:31:31;;;;;;;38.05;26.00;;;;;;;;;;5104129;28;24417;-63
2022/01/11 12:33:57;;;;;;;40.58;27.50;;;;;;;;;;5104072;28;24410;-61
2022/01/11 12:36:22;;;;;;;39.42;27.13;;;;;;;;;;5102290;27;25028;-61
2022/01/11 12:39:01;;;;;;;47.20;30.83;;;;;;;;;;5100544;27;25039;-59
2022/01/11 12:41:28;;;;;;;48.90;30.52;;;;;;;;;;5122666;27;24701;-60
2022/01/11 12:44:13;;;;;;;48.95;30.60;;;;;;;;;;5124704;27;24409;-59
2022/01/11 12:46:48;;;;;;;41.65;27.17;;;;;;;;;;5120572;27;24435;-60
2022/01/11 12:49:15;;;;;;;42.88;26.75;;;;;;;;;;5118524;27;24431;-58
2022/01/11 12:51:48;;;;;;;43.53;27.60;;;;;;;;;;5122060;27;24973;-60
2022/01/11 12:54:18;;;;;;;45.65;27.63;;;;;;;;;;5122995;27;24508;-59
2022/01/11 12:56:44;;;;;;;41.65;28.08;;;;;;;;;;5124521;27;24385;-58
2022/01/11 12:59:09;;;;;;;43.05;28.60;;;;;;;;;;5120783;27;24396;-59
2022/01/11 13:01:35;;;;;;;44.47;29.23;;;;;;;;;;5120383;27;24824;-62
2022/01/11 13:04:02;;;;;;;41.57;29.50;;;;;;;;;;5122611;27;25007;-58
2022/01/11 13:06:28;;;;;;;41.58;29.70;;;;;;;;;;5124184;27;24418;-59
2022/01/11 13:08:54;;;;;;;41.35;28.42;;;;;;;;;;5122319;27;24408;-59
2022/01/11 13:11:20;;;;;;;42.20;29.90;;;;;;;;;;5123647;27;24415;-59
2022/01/11 13:13:57;;;;;;;48.88;31.92;;;;;;;;;;5120716;27;24452;-58
2022/01/11 13:16:23;;;;;;;40.00;27.90;;;;;;;;;;5120552;27;24427;-60
2022/01/11 13:18:48;;;;;;;47.88;33.08;;;;;;;;;;5122128;27;24987;-58
2022/01/11 13:21:14;;;;;;;42.70;29.87;;;;;;;;;;5120343;27;24397;-58
2022/01/11 13:23:56;;;;;;;38.83;27.37;;;;;;;;;;5123323;27;24512;-59
2022/01/11 13:26:21;;;;;;;40.70;26.45;;;;;;;;;;5124142;27;24389;-60
2022/01/11 13:28:49;;;;;;;38.83;27.10;;;;;;;;;;5107374;27;24421;-58
2022/01/11 13:31:25;;;;;;;39.67;27.80;;;;;;;;;;5097898;28;24481;-58
2022/01/11 13:33:51;;;;;;;42.08;28.17;;;;;;;;;;5102931;28;24513;-58
2022/01/11 13:36:18;;;;;;;45.17;29.40;;;;;;;;;;5103249;28;24455;-58
2022/01/11 13:38:44;;;;;;;41.35;27.60;;;;;;;;;;5109792;27;24419;-59
2022/01/11 13:41:11;;;;;;;40.33;27.15;;;;;;;;;;5117830;27;24405;-58
2022/01/11 13:43:37;;;;;;;40.55;28.20;;;;;;;;;;5122185;27;24401;-59
2022/01/11 13:46:03;;;;;;;40.85;27.70;;;;;;;;;;5121755;27;24476;-58
2022/01/11 13:48:28;;;;;;;40.63;27.63;;;;;;;;;;5123060;27;24804;-59
2022/01/11 13:50:57;;;;;;;41.10;27.40;;;;;;;;;;5119653;27;25010;-59
2022/01/11 13:53:24;;;;;;;45.50;31.00;;;;;;;;;;5119420;27;24470;-59
2022/01/11 13:55:50;;;;;;;42.65;28.90;;;;;;;;;;5119807;27;24412;-58
2022/01/11 13:58:16;;;;;;;41.93;28.83;;;;;;;;;;5123420;27;24476;-59
2022/01/11 14:00:41;;;;;;;44.38;27.40;;;;;;;;;;5114071;28;24968;-59
2022/01/11 14:03:14;;;;;;;42.93;27.60;;;;;;;;;;5121310;28;24425;-59
2022/01/11 14:05:39;;;;;;;39.28;26.85;;;;;;;;;;5117575;28;25148;-59
2022/01/11 14:08:08;;;;;;;43.15;29.63;;;;;;;;;;5117114;28;24935;-59
2022/01/11 14:10:37;;;;;;;40.25;26.65;;;;;;;;;;5120692;28;24397;-58
2022/01/11 14:13:05;;;;;;;41.90;27.07;;;;;;;;;;5120441;28;24957;-59
2022/01/11 14:15:30;;;;;;;42.58;27.52;;;;;;;;;;5122462;28;24405;-59